Time;durP1;ratioP1;P1;durP2;ratioP2;P2;SDS_P1;SDS_P2;PMS_P1;PMS_P2;Temp;Humidity;BMP_temperature;BMP_pressure;BME280_temperature;BME280_humidity;BME280_pressure;Samples;Min_cycle;Max_cycle;Signal;HPM_P1;HPM_P2
2021/08/01 00:01:54;;;;;;;8.48;4.28;;;15.50;94.00;;;;;;5089064;28;20024;-67
2021/08/01 00:04:20;;;;;;;7.50;3.67;;;15.60;93.90;;;;;;5064748;28;20035;-67
2021/08/01 00:06:45;;;;;;;7.93;3.80;;;15.60;93.80;;;;;;5071628;28;20054;-66
2021/08/01 00:09:11;;;;;;;7.18;3.95;;;15.60;93.90;;;;;;5090186;28;20027;-66
2021/08/01 00:11:36;;;;;;;7.68;4.57;;;15.50;93.80;;;;;;5069398;28;20020;-66
2021/08/01 00:14:02;;;;;;;10.48;4.05;;;15.60;93.80;;;;;;5071339;28;20028;-67
2021/08/01 00:16:28;;;;;;;6.60;3.85;;;15.60;93.70;;;;;;5055580;28;20040;-66
2021/08/01 00:18:56;;;;;;;6.57;4.00;;;15.60;93.60;;;;;;5070456;28;20497;-66
2021/08/01 00:21:22;;;;;;;6.30;3.67;;;15.60;93.70;;;;;;5068742;28;20035;-67
2021/08/01 00:23:47;;;;;;;7.68;3.95;;;15.60;93.40;;;;;;5088253;28;20036;-67
2021/08/01 00:26:13;;;;;;;9.45;3.60;;;15.60;93.20;;;;;;5088916;28;20446;-67
2021/08/01 00:28:39;;;;;;;7.38;3.45;;;15.60;93.10;;;;;;5068695;28;20502;-67
2021/08/01 00:31:04;;;;;;;6.38;3.40;;;15.60;92.90;;;;;;5070005;28;20032;-66
2021/08/01 00:33:30;;;;;;;7.25;3.85;;;15.60;92.50;;;;;;5084856;28;20103;-66
2021/08/01 00:35:56;;;;;;;8.68;3.78;;;15.60;92.60;;;;;;5070196;28;20472;-66
2021/08/01 00:38:21;;;;;;;7.18;3.65;;;15.60;92.40;;;;;;5070692;28;20535;-66
2021/08/01 00:40:47;;;;;;;6.28;3.25;;;15.60;92.50;;;;;;5067786;28;20056;-66
2021/08/01 00:43:13;;;;;;;8.55;3.40;;;15.70;92.50;;;;;;5070178;28;20115;-67
2021/08/01 00:45:39;;;;;;;9.57;3.45;;;15.60;92.50;;;;;;5087320;28;20020;-66
2021/08/01 00:48:12;;;;;;;11.55;3.45;;;15.60;92.40;;;;;;5038800;28;20040;-66
2021/08/01 00:50:37;;;;;;;7.57;3.22;;;15.60;92.40;;;;;;5038245;28;20020;-67
2021/08/01 00:53:05;;;;;;;6.05;3.20;;;15.60;92.40;;;;;;5088275;28;20030;-67
2021/08/01 00:55:30;;;;;;;5.18;3.03;;;15.60;92.40;;;;;;5064765;28;20052;-67
2021/08/01 00:57:56;;;;;;;5.82;3.58;;;15.60;92.60;;;;;;5086525;28;20117;-67
2021/08/01 01:00:39;;;;;;;8.48;3.95;;;15.60;92.40;;;;;;5086907;28;20032;-67
2021/08/01 01:03:16;;;;;;;7.45;3.63;;;15.60;92.40;;;;;;5088008;28;20115;-67
2021/08/01 01:06:01;;;;;;;8.85;3.47;;;15.50;92.40;;;;;;5088183;28;20039;-66
2021/08/01 01:08:46;;;;;;;8.75;3.45;;;15.50;92.40;;;;;;5071542;28;20024;-67
2021/08/01 01:11:14;;;;;;;8.15;3.85;;;15.50;92.40;;;;;;5060876;28;20021;-67
2021/08/01 01:13:45;;;;;;;5.47;3.35;;;15.50;92.30;;;;;;5069434;28;20494;-66
2021/08/01 01:16:11;;;;;;;8.60;4.07;;;15.50;92.40;;;;;;5065873;28;20048;-66
2021/08/01 01:18:48;;;;;;;11.70;4.00;;;15.40;92.50;;;;;;5069350;28;20073;-66
2021/08/01 01:21:35;;;;;;;8.32;3.80;;;15.50;92.30;;;;;;5083709;28;20016;-67
2021/08/01 01:24:06;;;;;;;8.32;3.75;;;15.50;92.20;;;;;;5085981;28;20377;-67
2021/08/01 01:26:39;;;;;;;7.55;4.18;;;15.50;92.10;;;;;;5063361;28;20063;-67
2021/08/01 01:29:25;;;;;;;7.55;3.80;;;15.50;92.20;;;;;;5063830;28;20084;-67
2021/08/01 01:32:00;;;;;;;6.05;3.35;;;15.50;92.00;;;;;;5083126;28;20023;-66
2021/08/01 01:34:36;;;;;;;10.15;3.85;;;15.50;92.10;;;;;;5052462;28;20031;-67
2021/08/01 01:37:06;;;;;;;6.07;3.78;;;15.50;92.10;;;;;;5086581;28;20047;-67
2021/08/01 01:39:36;;;;;;;8.18;4.05;;;15.50;92.10;;;;;;5061111;28;20031;-67
2021/08/01 01:42:03;;;;;;;6.18;4.13;;;15.50;92.20;;;;;;5088353;28;20074;-67
2021/08/01 01:44:31;;;;;;;6.53;4.40;;;15.50;92.20;;;;;;5071390;28;20042;-67
2021/08/01 01:46:57;;;;;;;6.97;4.15;;;15.50;92.30;;;;;;5067386;28;20032;-66
2021/08/01 01:49:24;;;;;;;7.25;4.07;;;15.50;92.30;;;;;;5062248;28;20024;-66
2021/08/01 01:51:51;;;;;;;7.43;4.20;;;15.40;92.40;;;;;;5053456;28;20012;-67
2021/08/01 01:54:18;;;;;;;12.50;4.75;;;15.40;92.40;;;;;;5085844;28;20026;-67
2021/08/01 01:56:44;;;;;;;8.43;5.28;;;15.40;92.60;;;;;;5063160;28;20050;-67
2021/08/01 01:59:12;;;;;;;9.43;5.72;;;15.40;92.70;;;;;;5082543;28;20036;-66
2021/08/01 02:01:38;;;;;;;10.82;5.88;;;15.40;92.80;;;;;;5067734;28;20393;-67
2021/08/01 02:04:05;;;;;;;10.27;5.78;;;15.40;92.80;;;;;;5086852;28;20480;-67
2021/08/01 02:06:32;;;;;;;10.82;6.45;;;15.30;93.00;;;;;;5069778;28;20051;-66
2021/08/01 02:09:01;;;;;;;11.68;7.03;;;15.30;93.20;;;;;;5064968;28;20078;-66
2021/08/01 02:11:35;;;;;;;11.63;7.25;;;15.30;93.30;;;;;;5087646;28;20012;-66
2021/08/01 02:14:06;;;;;;;12.20;7.60;;;15.30;93.60;;;;;;5081989;28;20063;-67
2021/08/01 02:16:34;;;;;;;10.15;7.90;;;15.30;93.70;;;;;;5084704;28;20016;-66
2021/08/01 02:19:04;;;;;;;15.63;8.18;;;15.20;93.70;;;;;;5087338;28;20472;-67
2021/08/01 02:21:30;;;;;;;11.00;7.25;;;15.20;93.70;;;;;;5087867;28;20019;-67
2021/08/01 02:23:58;;;;;;;15.85;8.73;;;15.20;93.70;;;;;;5085678;28;20016;-67
2021/08/01 02:26:24;;;;;;;13.13;8.45;;;15.20;93.90;;;;;;5085794;28;20502;-67
2021/08/01 02:28:52;;;;;;;11.88;8.77;;;15.20;93.90;;;;;;5085957;28;20032;-66
2021/08/01 02:31:19;;;;;;;12.07;8.45;;;15.20;94.00;;;;;;5085888;28;20024;-66
2021/08/01 02:33:47;;;;;;;11.20;8.60;;;15.10;94.00;;;;;;5083116;28;20020;-66
2021/08/01 02:36:14;;;;;;;13.70;8.30;;;15.20;94.00;;;;;;5052458;28;20028;-67
2021/08/01 02:38:41;;;;;;;13.07;8.68;;;15.10;93.90;;;;;;5087151;28;20032;-66
2021/08/01 02:41:17;;;;;;;13.57;8.32;;;15.20;93.90;;;;;;5086782;28;20111;-67
2021/08/01 02:43:45;;;;;;;15.82;8.38;;;15.20;93.80;;;;;;5086544;28;20031;-66
2021/08/01 02:46:11;;;;;;;13.82;9.05;;;15.10;93.80;;;;;;5088956;28;20051;-66
2021/08/01 02:48:37;;;;;;;11.60;8.75;;;15.10;93.90;;;;;;5090422;28;20043;-66
2021/08/01 02:51:05;;;;;;;20.15;10.13;;;15.10;94.00;;;;;;5091906;28;20028;-66
2021/08/01 02:53:37;;;;;;;12.45;8.38;;;15.20;94.10;;;;;;5091164;28;20020;-66
2021/08/01 02:56:05;;;;;;;14.90;9.27;;;15.10;94.00;;;;;;5069458;28;20099;-66
2021/08/01 02:58:33;;;;;;;14.85;9.18;;;15.10;94.10;;;;;;5089402;28;20111;-66
2021/08/01 03:01:00;;;;;;;14.98;9.73;;;15.10;94.20;;;;;;5072499;28;20119;-66
2021/08/01 03:03:26;;;;;;;14.35;9.23;;;15.10;94.20;;;;;;5072710;28;20056;-66
2021/08/01 03:05:52;;;;;;;15.07;9.73;;;15.10;94.30;;;;;;5087627;28;20099;-66
2021/08/01 03:08:18;;;;;;;14.48;9.95;;;15.00;94.30;;;;;;5090248;28;20630;-66
2021/08/01 03:10:48;;;;;;;15.52;9.90;;;15.00;94.50;;;;;;5089591;28;20023;-66
2021/08/01 03:13:14;;;;;;;13.68;10.27;;;15.00;94.50;;;;;;5090655;28;20382;-66
2021/08/01 03:15:42;;;;;;;16.75;10.65;;;15.00;94.60;;;;;;5071765;28;20074;-66
2021/08/01 03:18:08;;;;;;;17.02;10.10;;;15.00;94.50;;;;;;5088270;28;20145;-66
2021/08/01 03:20:34;;;;;;;11.63;9.48;;;15.00;94.50;;;;;;5090924;28;20524;-65
2021/08/01 03:23:00;;;;;;;17.70;10.13;;;15.00;94.50;;;;;;5072848;28;20032;-66
2021/08/01 03:25:26;;;;;;;13.98;10.18;;;15.00;94.60;;;;;;5090379;28;20036;-66
2021/08/01 03:27:51;;;;;;;15.32;10.93;;;15.00;94.60;;;;;;5088493;28;20074;-66
2021/08/01 03:30:17;;;;;;;17.25;10.43;;;15.00;94.60;;;;;;5091438;28;20317;-66
2021/08/01 03:32:42;;;;;;;18.45;11.73;;;15.00;94.60;;;;;;5071198;28;20466;-66
2021/08/01 03:35:08;;;;;;;17.98;11.52;;;15.00;94.70;;;;;;5061772;28;20032;-66
2021/08/01 03:37:34;;;;;;;15.80;11.18;;;15.00;94.60;;;;;;5089660;28;20093;-66
2021/08/01 03:39:59;;;;;;;19.05;12.13;;;15.00;94.60;;;;;;5071963;28;20016;-66
2021/08/01 03:42:25;;;;;;;17.42;11.60;;;15.00;94.70;;;;;;5089576;28;20548;-66
2021/08/01 03:44:51;;;;;;;19.65;12.45;;;15.00;94.70;;;;;;5072435;28;20024;-66
2021/08/01 03:47:16;;;;;;;18.83;11.77;;;15.00;94.70;;;;;;5084567;28;20047;-66
2021/08/01 03:49:43;;;;;;;25.15;12.65;;;15.00;94.70;;;;;;5090393;28;20392;-66
2021/08/01 03:52:09;;;;;;;19.13;13.40;;;14.90;94.80;;;;;;5070444;28;20028;-66
2021/08/01 03:54:35;;;;;;;19.75;12.15;;;14.90;94.80;;;;;;5090496;28;20028;-66
2021/08/01 03:57:01;;;;;;;19.15;12.65;;;14.80;94.70;;;;;;5085888;28;20024;-66
2021/08/01 03:59:26;;;;;;;20.80;12.98;;;14.80;94.90;;;;;;5064705;28;20033;-66
2021/08/01 04:01:52;;;;;;;19.95;13.02;;;14.80;95.10;;;;;;5089548;28;20032;-67
2021/08/01 04:04:17;;;;;;;22.00;14.50;;;14.70;95.20;;;;;;5054058;28;20186;-66
2021/08/01 04:06:43;;;;;;;18.17;12.90;;;14.70;95.20;;;;;;5071706;28;20034;-66
2021/08/01 04:09:09;;;;;;;21.60;14.00;;;14.80;95.30;;;;;;5090219;28;20400;-65
2021/08/01 04:11:36;;;;;;;21.25;14.00;;;14.80;95.20;;;;;;5088767;28;20024;-66
2021/08/01 04:14:02;;;;;;;20.17;13.80;;;14.80;95.10;;;;;;5070703;28;20065;-66
2021/08/01 04:16:27;;;;;;;23.20;14.32;;;14.80;95.20;;;;;;5088030;28;20036;-65
2021/08/01 04:18:53;;;;;;;20.25;13.45;;;14.80;95.30;;;;;;5071323;28;20403;-66
2021/08/01 04:21:19;;;;;;;18.00;13.32;;;14.80;95.30;;;;;;5066437;28;20042;-65
2021/08/01 04:23:44;;;;;;;19.50;13.52;;;14.80;95.30;;;;;;5089776;28;20115;-65
2021/08/01 04:26:10;;;;;;;20.25;13.63;;;14.80;95.20;;;;;;5089288;28;20075;-66
2021/08/01 04:28:36;;;;;;;19.40;13.43;;;14.90;95.20;;;;;;5087740;28;20096;-65
2021/08/01 04:31:03;;;;;;;18.15;13.13;;;15.00;95.10;;;;;;5088347;28;20048;-66
2021/08/01 04:33:29;;;;;;;19.20;12.45;;;15.00;95.00;;;;;;5088815;28;20028;-66
2021/08/01 04:35:55;;;;;;;22.63;12.85;;;15.00;94.80;;;;;;5068061;28;20077;-66
2021/08/01 04:38:21;;;;;;;18.33;12.88;;;15.00;94.90;;;;;;5068965;28;20032;-66
2021/08/01 04:40:46;;;;;;;18.15;13.23;;;15.00;94.80;;;;;;5088351;28;20391;-65
2021/08/01 04:43:12;;;;;;;19.02;12.57;;;15.00;94.80;;;;;;5070197;28;20119;-66
2021/08/01 04:45:38;;;;;;;17.42;13.13;;;15.00;95.00;;;;;;5075072;28;20270;-66
2021/08/01 04:48:05;;;;;;;18.75;12.55;;;15.00;95.00;;;;;;5088092;28;20028;-66
2021/08/01 04:50:31;;;;;;;20.10;13.50;;;15.00;95.10;;;;;;5071925;28;20484;-66
2021/08/01 04:52:57;;;;;;;25.88;13.05;;;15.00;95.20;;;;;;5087930;28;20254;-65
2021/08/01 04:55:23;;;;;;;22.35;13.40;;;15.00;95.00;;;;;;5070627;28;20457;-65
2021/08/01 04:57:48;;;;;;;21.60;13.68;;;15.10;95.00;;;;;;5068694;28;20060;-66
2021/08/01 05:00:15;;;;;;;21.48;12.70;;;15.00;94.80;;;;;;5067787;28;20055;-66
2021/08/01 05:02:40;;;;;;;20.58;13.50;;;15.10;94.80;;;;;;5069646;28;20039;-66
2021/08/01 05:05:07;;;;;;;19.20;12.60;;;15.10;94.80;;;;;;5089753;28;20024;-66
2021/08/01 05:07:33;;;;;;;18.73;12.73;;;15.20;94.80;;;;;;5089139;28;20026;-66
2021/08/01 05:10:00;;;;;;;20.23;12.50;;;15.30;94.70;;;;;;5066453;28;20039;-67
2021/08/01 05:12:26;;;;;;;18.27;12.55;;;15.30;94.40;;;;;;5084323;28;20500;-66
2021/08/01 05:14:52;;;;;;;20.85;13.80;;;15.30;94.40;;;;;;5053891;28;20024;-66
2021/08/01 05:17:18;;;;;;;23.05;13.13;;;15.40;94.30;;;;;;5065073;28;20388;-66
2021/08/01 05:19:43;;;;;;;23.63;13.75;;;15.40;94.20;;;;;;5070401;28;20036;-66
2021/08/01 05:22:11;;;;;;;19.77;12.70;;;15.40;93.80;;;;;;5085557;28;20032;-66
2021/08/01 05:24:38;;;;;;;19.05;13.27;;;15.50;94.00;;;;;;5071326;28;20035;-66
2021/08/01 05:27:04;;;;;;;19.75;13.07;;;15.50;93.90;;;;;;5068997;28;20523;-66
2021/08/01 05:29:30;;;;;;;19.88;13.40;;;15.50;93.70;;;;;;5067155;28;20063;-66
2021/08/01 05:31:55;;;;;;;18.13;13.10;;;15.60;93.80;;;;;;5087426;28;20074;-66
2021/08/01 05:34:22;;;;;;;22.40;14.05;;;15.60;93.50;;;;;;5088514;28;20407;-66
2021/08/01 05:36:48;;;;;;;18.17;13.23;;;15.60;93.20;;;;;;5084822;28;20570;-66
2021/08/01 05:39:13;;;;;;;19.13;13.43;;;15.70;93.20;;;;;;5088843;28;20058;-66
2021/08/01 05:41:39;;;;;;;20.88;13.32;;;15.70;93.20;;;;;;5083433;28;20058;-66
2021/08/01 05:44:05;;;;;;;17.45;12.98;;;15.80;93.10;;;;;;5088745;28;20024;-66
2021/08/01 05:46:31;;;;;;;23.10;13.27;;;15.80;93.00;;;;;;5067223;28;20361;-66
2021/08/01 05:48:56;;;;;;;22.52;13.93;;;15.90;92.80;;;;;;5088401;28;20110;-66
2021/08/01 05:51:22;;;;;;;18.65;13.77;;;16.00;92.40;;;;;;5070311;28;20032;-67
2021/08/01 05:53:48;;;;;;;19.10;14.05;;;16.00;92.20;;;;;;5051606;28;20028;-67
2021/08/01 05:56:13;;;;;;;21.25;13.95;;;16.00;91.90;;;;;;5062791;28;20548;-66
2021/08/01 05:58:40;;;;;;;23.80;14.20;;;16.10;91.70;;;;;;5048207;28;20074;-67
2021/08/01 06:01:10;;;;;;;21.83;13.30;;;16.30;91.60;;;;;;5083759;28;20096;-67
2021/08/01 06:03:36;;;;;;;22.00;14.32;;;16.30;91.20;;;;;;5066761;28;20031;-67
2021/08/01 06:06:27;;;;;;;22.05;13.52;;;16.40;90.80;;;;;;5088160;28;20056;-67
2021/08/01 06:08:53;;;;;;;17.35;12.88;;;16.40;90.70;;;;;;5077400;28;20361;-67
2021/08/01 06:11:20;;;;;;;18.75;13.32;;;16.30;90.70;;;;;;5089244;28;20480;-67
2021/08/01 06:13:46;;;;;;;16.85;13.45;;;16.40;90.90;;;;;;5065379;28;20025;-67
2021/08/01 06:16:13;;;;;;;17.52;13.15;;;16.30;90.40;;;;;;5082651;28;20397;-67
2021/08/01 06:18:39;;;;;;;15.75;12.43;;;16.50;90.10;;;;;;5086318;28;20267;-67
2021/08/01 06:21:27;;;;;;;20.40;13.00;;;16.50;89.60;;;;;;5084459;28;20081;-67
2021/08/01 06:23:53;;;;;;;17.75;12.38;;;16.50;90.00;;;;;;5069370;28;20028;-67
2021/08/01 06:26:20;;;;;;;18.83;12.57;;;16.30;90.00;;;;;;5087343;28;20483;-67
2021/08/01 06:28:47;;;;;;;20.25;12.60;;;16.40;89.70;;;;;;5086635;28;20016;-67
2021/08/01 06:31:13;;;;;;;19.90;11.90;;;16.50;89.70;;;;;;5086559;28;20103;-67
2021/08/01 06:33:39;;;;;;;17.67;12.35;;;16.70;89.30;;;;;;5086138;28;20697;-67
2021/08/01 06:36:09;;;;;;;19.77;12.73;;;16.60;88.70;;;;;;5087709;28;20031;-67
2021/08/01 06:38:35;;;;;;;19.80;11.73;;;16.60;88.50;;;;;;5086039;28;20602;-67
2021/08/01 06:41:01;;;;;;;19.33;11.82;;;16.90;88.90;;;;;;5087243;28;20044;-67
2021/08/01 06:43:27;;;;;;;16.98;11.07;;;17.00;88.40;;;;;;5086732;28;20050;-67
2021/08/01 06:45:53;;;;;;;21.02;11.88;;;17.00;87.60;;;;;;5086541;28;20024;-68
2021/08/01 06:48:19;;;;;;;16.70;11.25;;;17.00;87.30;;;;;;5086293;28;20030;-67
2021/08/01 06:50:44;;;;;;;15.90;10.77;;;17.10;87.20;;;;;;5086125;28;20623;-67
2021/08/01 06:53:10;;;;;;;18.38;11.75;;;17.00;87.40;;;;;;5086349;28;20441;-68
2021/08/01 06:55:36;;;;;;;20.63;11.75;;;17.00;87.40;;;;;;5087523;28;20020;-67
2021/08/01 06:58:01;;;;;;;17.77;12.35;;;17.10;87.80;;;;;;5086661;28;20067;-67
2021/08/01 07:00:27;;;;;;;19.77;12.60;;;17.00;87.40;;;;;;5083427;28;20027;-67
2021/08/01 07:02:57;;;;;;;17.35;12.57;;;17.00;87.80;;;;;;5086697;28;20028;-67
2021/08/01 07:05:23;;;;;;;17.95;12.90;;;17.10;87.50;;;;;;5087924;28;20421;-67
2021/08/01 07:07:49;;;;;;;21.88;12.98;;;17.10;88.10;;;;;;5086780;28;20042;-67
2021/08/01 07:10:16;;;;;;;21.33;12.52;;;17.10;87.50;;;;;;5084125;28;20016;-67
2021/08/01 07:12:42;;;;;;;19.83;12.63;;;17.30;87.30;;;;;;5086495;28;20538;-67
2021/08/01 07:15:13;;;;;;;17.98;12.70;;;17.70;86.50;;;;;;5082328;28;20071;-67
2021/08/01 07:17:39;;;;;;;14.05;11.77;;;17.60;85.80;;;;;;5067673;28;20094;-67
2021/08/01 07:20:07;;;;;;;16.83;10.93;;;17.50;86.00;;;;;;5087619;28;20032;-67
2021/08/01 07:22:33;;;;;;;15.93;9.68;;;17.50;86.30;;;;;;5084392;28;20513;-67
2021/08/01 07:24:59;;;;;;;18.95;9.73;;;17.50;85.30;;;;;;5087622;28;20020;-67
2021/08/01 07:27:25;;;;;;;15.27;9.35;;;17.60;85.40;;;;;;5085853;28;21071;-66
2021/08/01 07:29:50;;;;;;;13.35;8.63;;;17.70;84.70;;;;;;5083800;28;20364;-67
2021/08/01 07:32:16;;;;;;;18.17;9.02;;;17.70;84.50;;;;;;5087975;28;20773;-67
2021/08/01 07:34:41;;;;;;;12.75;8.45;;;17.70;83.90;;;;;;5090577;28;20024;-67
2021/08/01 07:37:07;;;;;;;12.80;9.15;;;18.00;84.90;;;;;;5090258;28;20031;-67
2021/08/01 07:39:33;;;;;;;12.52;8.15;;;18.10;84.40;;;;;;5090316;28;20556;-67
2021/08/01 07:41:58;;;;;;;10.15;7.78;;;18.10;83.70;;;;;;5090116;28;20038;-67
2021/08/01 07:44:26;;;;;;;11.80;7.68;;;18.40;83.70;;;;;;5090815;28;20032;-67
2021/08/01 07:46:52;;;;;;;11.25;7.20;;;18.40;82.90;;;;;;5092074;28;20063;-67
2021/08/01 07:49:17;;;;;;;11.73;7.03;;;18.40;82.70;;;;;;5067672;28;20616;-67
2021/08/01 07:51:43;;;;;;;10.35;7.00;;;18.50;82.10;;;;;;5089988;28;20020;-67
2021/08/01 07:54:08;;;;;;;10.38;6.82;;;18.40;81.90;;;;;;5089428;28;20149;-67
2021/08/01 07:56:35;;;;;;;9.93;6.75;;;18.60;82.70;;;;;;5089386;28;20027;-67
2021/08/01 07:59:01;;;;;;;9.13;6.60;;;18.70;81.50;;;;;;5088509;28;20369;-67
2021/08/01 08:01:26;;;;;;;12.18;6.20;;;18.90;80.80;;;;;;5089357;28;20031;-67
2021/08/01 08:03:52;;;;;;;11.23;6.07;;;19.00;79.90;;;;;;5089042;28;20036;-67
2021/08/01 08:06:17;;;;;;;11.02;6.05;;;19.00;79.90;;;;;;5090960;28;20047;-68
2021/08/01 08:08:43;;;;;;;9.23;5.38;;;18.70;79.50;;;;;;5088619;28;20066;-67
2021/08/01 08:11:09;;;;;;;8.75;5.13;;;18.70;80.40;;;;;;5089375;28;20363;-67
2021/08/01 08:13:34;;;;;;;10.60;5.60;;;19.00;81.00;;;;;;5089714;28;20040;-68
2021/08/01 08:16:00;;;;;;;12.45;6.70;;;19.00;80.10;;;;;;5088998;28;20032;-67
2021/08/01 08:18:25;;;;;;;12.60;6.47;;;19.00;81.10;;;;;;5089371;28;20028;-67
2021/08/01 08:20:51;;;;;;;9.95;6.18;;;19.30;80.20;;;;;;5089593;28;20456;-67
2021/08/01 08:23:17;;;;;;;10.98;6.85;;;19.30;80.60;;;;;;5085338;28;20084;-68
2021/08/01 08:25:43;;;;;;;9.45;6.50;;;19.50;79.80;;;;;;5089470;28;20028;-68
2021/08/01 08:28:08;;;;;;;14.63;6.75;;;20.00;79.00;;;;;;5088331;28;20039;-68
2021/08/01 08:30:34;;;;;;;11.55;6.90;;;20.10;76.40;;;;;;5069674;28;20372;-68
2021/08/01 08:33:00;;;;;;;12.68;7.53;;;19.80;76.80;;;;;;5088331;28;20024;-68
2021/08/01 08:35:26;;;;;;;8.60;5.95;;;19.80;76.70;;;;;;5089731;28;20012;-67
2021/08/01 08:37:54;;;;;;;9.75;6.43;;;19.40;78.30;;;;;;5089595;28;20438;-68
2021/08/01 08:40:21;;;;;;;9.50;5.72;;;19.40;77.90;;;;;;5089161;28;20060;-68
2021/08/01 08:42:51;;;;;;;8.48;5.35;;;19.70;78.30;;;;;;5087851;28;20027;-68
2021/08/01 08:45:17;;;;;;;10.73;5.57;;;19.40;76.80;;;;;;5088773;28;20024;-68
2021/08/01 08:47:45;;;;;;;10.15;4.82;;;19.40;76.80;;;;;;5089155;28;20012;-68
2021/08/01 08:50:17;;;;;;;7.47;4.68;;;19.90;78.80;;;;;;5086934;28;20099;-68
2021/08/01 08:52:44;;;;;;;7.00;4.47;;;20.00;77.30;;;;;;5087267;28;20036;-68
2021/08/01 08:55:12;;;;;;;7.03;3.95;;;19.60;75.40;;;;;;5084050;28;20614;-68
2021/08/01 08:57:41;;;;;;;7.35;3.97;;;19.50;76.00;;;;;;5087431;28;20040;-68
2021/08/01 09:00:09;;;;;;;7.53;3.85;;;19.30;77.30;;;;;;5086618;28;20047;-67
2021/08/01 09:02:35;;;;;;;10.25;4.63;;;19.00;77.50;;;;;;5086754;28;20479;-68
2021/08/01 09:05:02;;;;;;;6.93;3.88;;;19.40;75.90;;;;;;5088952;28;20388;-67
2021/08/01 09:07:28;;;;;;;7.82;4.18;;;19.30;76.60;;;;;;5088577;28;20552;-67
2021/08/01 09:09:54;;;;;;;6.47;3.90;;;19.30;77.30;;;;;;5088206;28;20034;-67
2021/08/01 09:12:20;;;;;;;11.90;4.22;;;19.80;76.60;;;;;;5066201;28;20097;-68
2021/08/01 09:14:46;;;;;;;5.28;3.28;;;20.00;75.20;;;;;;5083539;28;20028;-67
2021/08/01 09:17:12;;;;;;;6.75;3.22;;;19.90;73.90;;;;;;5068686;28;20193;-67
2021/08/01 09:19:43;;;;;;;6.22;3.20;;;19.80;74.10;;;;;;5068052;28;20123;-68
2021/08/01 09:22:18;;;;;;;6.88;2.75;;;19.80;73.70;;;;;;5066059;28;20028;-68
2021/08/01 09:24:47;;;;;;;4.03;2.70;;;20.30;73.00;;;;;;5087698;28;20097;-68
2021/08/01 09:27:29;;;;;;;5.25;3.45;;;20.20;72.30;;;;;;5061067;28;20036;-68
2021/08/01 09:29:55;;;;;;;6.00;3.30;;;19.80;72.80;;;;;;5087757;28;20608;-67
2021/08/01 09:32:21;;;;;;;6.80;3.20;;;19.60;74.50;;;;;;5069125;28;20285;-68
2021/08/01 09:34:48;;;;;;;6.00;3.15;;;19.60;74.80;;;;;;5062513;28;20034;-68
2021/08/01 09:37:28;;;;;;;4.97;2.58;;;20.20;73.80;;;;;;5087699;28;20102;-68
2021/08/01 09:40:13;;;;;;;5.55;2.80;;;20.60;71.90;;;;;;5065889;28;20097;-68
2021/08/01 09:42:44;;;;;;;5.70;3.33;;;20.60;71.40;;;;;;5080456;28;20056;-68
2021/08/01 09:45:21;;;;;;;4.85;2.65;;;20.50;71.80;;;;;;5080393;28;20036;-68
2021/08/01 09:47:49;;;;;;;3.03;2.53;;;21.10;71.60;;;;;;5083843;28;20122;-68
2021/08/01 09:50:17;;;;;;;7.28;2.78;;;21.20;69.90;;;;;;5089049;28;20012;-68
2021/08/01 09:52:43;;;;;;;4.68;2.72;;;21.00;69.80;;;;;;5065188;28;20016;-68
2021/08/01 09:55:20;;;;;;;4.45;2.75;;;21.30;68.90;;;;;;5069423;28;20423;-68
2021/08/01 09:57:50;;;;;;;7.03;3.25;;;21.70;69.30;;;;;;5084935;28;20073;-69
2021/08/01 10:00:16;;;;;;;6.90;2.75;;;21.50;69.10;;;;;;5065175;28;20023;-68
2021/08/01 10:02:42;;;;;;;9.38;3.30;;;21.60;70.30;;;;;;5087710;28;20028;-68
2021/08/01 10:05:15;;;;;;;5.45;2.55;;;22.00;69.20;;;;;;5087021;28;20035;-68
2021/08/01 10:07:45;;;;;;;5.65;2.58;;;22.50;68.50;;;;;;5085048;28;20510;-68
2021/08/01 10:10:26;;;;;;;3.92;2.60;;;21.70;67.90;;;;;;5080803;28;20512;-68
2021/08/01 10:12:59;;;;;;;5.95;2.78;;;21.40;69.90;;;;;;5082344;28;20031;-68
2021/08/01 10:15:27;;;;;;;8.27;2.47;;;21.50;68.90;;;;;;5088649;28;20107;-68
2021/08/01 10:17:53;;;;;;;3.03;2.22;;;21.60;70.50;;;;;;5084074;28;20478;-68
2021/08/01 10:20:19;;;;;;;4.22;2.20;;;21.90;67.20;;;;;;5087807;28;20015;-68
2021/08/01 10:22:45;;;;;;;4.38;2.50;;;22.00;67.40;;;;;;5085892;28;20020;-68
2021/08/01 10:25:17;;;;;;;4.15;2.50;;;21.60;67.90;;;;;;5087786;28;20036;-68
2021/08/01 10:27:46;;;;;;;3.97;2.10;;;21.80;67.70;;;;;;5083520;28;20024;-68
2021/08/01 10:30:20;;;;;;;4.75;2.25;;;21.80;67.60;;;;;;5087600;28;20074;-68
2021/08/01 10:32:49;;;;;;;5.78;2.13;;;21.60;66.90;;;;;;5080099;28;20025;-69
2021/08/01 10:35:16;;;;;;;4.25;2.80;;;21.70;67.20;;;;;;5079889;28;20016;-68
2021/08/01 10:37:50;;;;;;;6.00;2.70;;;21.60;67.00;;;;;;5088130;28;20480;-68
2021/08/01 10:40:22;;;;;;;5.50;2.72;;;21.60;67.10;;;;;;5085887;28;20032;-68
2021/08/01 10:42:54;;;;;;;6.28;2.80;;;21.90;66.20;;;;;;5078492;28;20039;-68
2021/08/01 10:45:20;;;;;;;5.38;2.80;;;21.50;68.00;;;;;;5080443;28;20372;-68
2021/08/01 10:47:49;;;;;;;6.55;2.80;;;20.90;68.40;;;;;;5086140;28;20013;-68
2021/08/01 10:50:18;;;;;;;6.78;3.05;;;20.50;70.80;;;;;;5087114;28;20148;-68
2021/08/01 10:52:44;;;;;;;6.72;3.38;;;20.10;72.90;;;;;;5084220;28;20016;-69
2021/08/01 10:55:21;;;;;;;9.43;3.70;;;19.90;74.60;;;;;;5086337;28;22467;-68
2021/08/01 10:58:10;;;;;;;7.20;3.90;;;20.00;74.90;;;;;;5084372;28;20020;-68
2021/08/01 11:01:01;;;;;;;5.40;3.83;;;21.00;71.30;;;;;;5084450;28;20020;-68
2021/08/01 11:03:28;;;;;;;5.95;3.92;;;22.20;67.90;;;;;;5084964;28;20202;-68
2021/08/01 11:05:54;;;;;;;6.63;4.00;;;22.60;65.30;;;;;;5088530;28;20129;-68
2021/08/01 11:08:20;;;;;;;8.23;3.83;;;22.50;64.80;;;;;;5088127;28;20054;-68
2021/08/01 11:10:45;;;;;;;7.38;4.07;;;22.40;66.50;;;;;;5091754;28;20096;-68
2021/08/01 11:13:29;;;;;;;6.68;4.05;;;22.20;64.70;;;;;;5089382;28;20157;-68
2021/08/01 11:15:55;;;;;;;7.10;4.15;;;21.60;66.90;;;;;;5065941;28;20032;-68
2021/08/01 11:18:31;;;;;;;8.25;4.07;;;21.30;68.30;;;;;;5032138;28;20035;-68
2021/08/01 11:21:03;;;;;;;6.15;4.07;;;21.00;69.20;;;;;;5087574;28;20043;-68
2021/08/01 11:24:05;;;;;;;6.93;3.40;;;20.60;70.50;;;;;;5085373;28;20492;-67
2021/08/01 11:26:31;;;;;;;8.68;4.22;;;20.60;71.00;;;;;;5045285;28;20070;-67
2021/08/01 11:29:09;;;;;;;8.43;4.60;;;20.50;73.00;;;;;;5070960;28;20551;-68
2021/08/01 11:31:36;;;;;;;5.30;3.95;;;21.00;73.30;;;;;;5069698;28;20264;-67
2021/08/01 11:34:22;;;;;;;6.57;3.72;;;21.80;70.00;;;;;;5071946;28;20059;-68
2021/08/01 11:36:49;;;;;;;6.43;3.33;;;21.90;69.50;;;;;;5065330;28;20042;-67
2021/08/01 11:39:15;;;;;;;5.22;2.17;;;21.80;68.10;;;;;;5073332;28;20035;-67
2021/08/01 11:41:43;;;;;;;6.95;2.33;;;21.80;68.00;;;;;;5090363;28;20040;-68
2021/08/01 11:44:12;;;;;;;4.15;2.28;;;21.70;68.00;;;;;;5071900;28;20395;-68
2021/08/01 11:46:46;;;;;;;4.45;2.13;;;22.00;67.60;;;;;;5086737;28;20032;-68
2021/08/01 11:49:13;;;;;;;4.18;2.70;;;22.10;65.90;;;;;;5088054;28;20460;-68
2021/08/01 11:51:45;;;;;;;8.15;2.53;;;22.20;65.20;;;;;;5089350;28;20533;-68
2021/08/01 11:54:12;;;;;;;4.43;2.05;;;22.50;65.00;;;;;;5072370;28;20454;-68
2021/08/01 11:56:41;;;;;;;3.90;2.40;;;22.70;67.00;;;;;;5087696;28;20320;-68
2021/08/01 11:59:15;;;;;;;8.20;2.97;;;22.40;65.60;;;;;;5090050;28;20031;-67
2021/08/01 12:01:41;;;;;;;3.65;2.42;;;21.90;66.90;;;;;;5089572;28;20511;-68
2021/08/01 12:04:08;;;;;;;3.55;2.63;;;21.70;66.60;;;;;;5073286;28;20047;-67
2021/08/01 12:06:36;;;;;;;4.72;2.20;;;21.70;66.50;;;;;;5090127;28;20383;-68
2021/08/01 12:09:21;;;;;;;5.40;2.65;;;21.60;67.60;;;;;;5047058;28;20384;-68
2021/08/01 12:11:55;;;;;;;5.35;2.95;;;21.50;66.90;;;;;;5070761;28;20032;-68
2021/08/01 12:14:30;;;;;;;4.38;3.03;;;21.00;68.60;;;;;;5064490;28;20035;-68
2021/08/01 12:17:09;;;;;;;6.70;3.20;;;20.50;73.40;;;;;;5055260;28;20032;-68
2021/08/01 12:19:39;;;;;;;4.38;2.80;;;20.30;76.50;;;;;;5070767;28;20522;-67
2021/08/01 12:22:09;;;;;;;3.30;2.15;;;20.20;74.60;;;;;;5089290;28;20036;-68
2021/08/01 12:24:43;;;;;;;5.70;3.67;;;19.80;77.50;;;;;;5067036;28;20031;-68
2021/08/01 12:27:19;;;;;;;4.90;3.25;;;19.50;79.70;;;;;;5080255;28;20032;-68
2021/08/01 12:29:51;;;;;;;5.72;3.72;;;19.30;81.80;;;;;;5071151;28;20023;-68
2021/08/01 12:32:29;;;;;;;6.68;3.78;;;19.00;83.00;;;;;;5044155;28;20471;-68
2021/08/01 12:35:10;;;;;;;8.32;5.30;;;18.60;85.10;;;;;;5087498;28;20236;-68
2021/08/01 12:37:51;;;;;;;6.93;4.03;;;18.10;87.50;;;;;;5089602;28;20028;-68
2021/08/01 12:40:28;;;;;;;5.40;4.05;;;17.80;87.50;;;;;;5072103;28;20112;-68
2021/08/01 12:42:56;;;;;;;7.95;3.97;;;17.50;88.30;;;;;;5066728;28;20131;-68
2021/08/01 12:45:33;;;;;;;5.88;3.97;;;17.40;88.70;;;;;;5088355;28;20042;-68